Flight Track Log - Related Links

Times and Time Zones

All times are in EDT time to prevent confusion due to time zone crossing. See the SWA481 flight status page for this flight to view local times or setup timezone preferences in your user account.

Time Position Orientation Groundspeed Altitude Reporting Facility
EDT Latitude Longitude Course Direction KTS MPH feet Rate Location/Type
Wed 07:03:11 PM 41.8000 -87.6000 90° East 260 299 4,900  Level Chicago TRACON
Wed 07:03:31 PM 41.8031 -87.5825 77° East 238 274 4,900  Level Chicago Center
Wed 07:04:33 PM 41.8050 -87.4758 89° East 263 303 4,900 1,016 Level Chicago Center
Wed 07:05:35 PM 41.7983 -87.3697 95° East 278 320 7,000 3,048 Climbing Chicago Center
Wed 07:06:37 PM 41.7825 -87.2408 99° East 290 334 11,200 3,581 Climbing Chicago Center
Wed 07:07:00 PM 41.7529 -87.0759 98° East  Level FlightAware
Wed 07:07:39 PM 41.7694 -87.1269 99° East 306 352 14,400  Level Chicago Center
Wed 07:08:41 PM 41.7611 -87.0086 95° East 319 367 15,000 1,161 Climbing Chicago Center
Wed 07:09:43 PM 41.7644 -86.8828 88° East 338 389 16,800 2,226 Climbing Chicago Center
Wed 07:10:45 PM 41.7647 -86.7419 90° East 374 430 19,600 2,806 Climbing Chicago Center
Wed 07:11:47 PM 41.7658 -86.5847 89° East 390 449 22,600 2,613 Climbing Chicago Center
Wed 07:12:49 PM 41.7667 -86.4308 90° East 411 473 25,000 2,208 Climbing Chicago Center
Wed 07:13:52 PM 41.7656 -86.2717 90° East 425 489 27,200 2,208 Climbing Chicago Center
Wed 07:14:54 PM 41.7536 -86.0744 95° East 442 509 29,600 2,274 Climbing Chicago Center
Wed 07:15:56 PM 41.7428 -85.9092 95° East 446 513 31,900 2,129 Climbing Chicago Center
Wed 07:16:58 PM 41.7328 -85.7458 95° East 442 509 34,000 1,500 Climbing Chicago Center
Wed 07:18:00 PM 41.7222 -85.5819 95° East 439 505 35,000 484 Climbing Chicago Center
Wed 07:19:02 PM 41.7086 -85.4019 96° East 435 501 35,000  Level Chicago Center
Wed 07:20:04 PM 41.6994 -85.2461 94° East 441 507 35,000  Level Chicago Center
Wed 07:21:06 PM 41.6889 -85.0789 95° East 447 514 35,000  Level Chicago Center
Wed 07:21:57 PM 41.6778 -84.9178 95° East 446 513 35,000  Level Cleveland Center
Wed 07:22:57 PM 41.6672 -84.7531 95° East 446 513 35,000  Level Cleveland Center
Wed 07:23:57 PM 41.6542 -84.5939 96° East 446 513 35,000  Level Cleveland Center
Wed 07:24:57 PM 41.6347 -84.4314 99° East 441 507 35,000  Level Cleveland Center
Wed 07:25:57 PM 41.6150 -84.2717 99° East 441 507 35,000  Level Cleveland Center
Wed 07:26:57 PM 41.5964 -84.1292 100° East 436 502 35,000  Level Cleveland Center
Wed 07:27:57 PM 41.5783 -83.9697 99° East 436 502 35,000  Level Cleveland Center
Wed 07:28:57 PM 41.5581 -83.8050 99° East 436 502 35,000  Level Cleveland Center
Wed 07:29:57 PM 41.5417 -83.6461 98° East 430 495 35,000  Level Cleveland Center
Wed 07:30:57 PM 41.5208 -83.4869 100° East 430 495 35,000  Level Cleveland Center
Wed 07:31:57 PM 41.5019 -83.3253 99° East 430 495 35,000  Level Cleveland Center
Wed 07:32:57 PM 41.4831 -83.1497 98° East 430 495 35,000  Level Cleveland Center
Wed 07:33:57 PM 41.4553 -82.9908 103° East 430 495 35,000 -150 Level Cleveland Center
Wed 07:34:57 PM 41.4186 -82.8369 108° East 430 495 34,700 -650 Descending Cleveland Center
Wed 07:35:57 PM 41.3819 -82.6836 108° East 435 501 33,700 -1,000 Descending Cleveland Center
Wed 07:36:57 PM 41.3472 -82.5331 107° East 435 501 32,700 -1,050 Descending Cleveland Center
Wed 07:37:57 PM 41.3119 -82.3883 108° East 425 489 31,600 -1,050 Descending Cleveland Center
Wed 07:38:57 PM 41.2767 -82.2408 108° East 420 483 30,600 -950 Descending Cleveland Center
Wed 07:39:57 PM 41.2433 -82.0964 107° East 415 478 29,700 -950 Descending Cleveland Center
Wed 07:40:57 PM 41.2094 -81.9575 108° East 404 465 28,700 -1,250 Descending Cleveland Center
Wed 07:41:57 PM 41.1758 -81.8189 108° East 404 465 27,200 -1,700 Descending Cleveland Center
Wed 07:42:57 PM 41.1417 -81.6806 108° East 398 458 25,300 -1,950 Descending Cleveland Center
Wed 07:43:57 PM 41.1053 -81.5503 110° East 386 444 23,300 -1,950 Descending Cleveland Center
Wed 07:44:57 PM 41.0731 -81.4231 109° East 373 429 21,400 -1,850 Descending Cleveland Center
Wed 07:45:57 PM 41.0425 -81.2989 108° East 367 422 19,600 -1,750 Descending Cleveland Center
Wed 07:46:57 PM 41.0119 -81.1775 108° East 354 407 17,900 -1,752 Descending Cleveland Center
Wed 07:47:50 PM 40.9833 -81.0728 110° East 343 395 16,300 -1,714 Descending Cleveland Center
Wed 07:48:14 PM 40.9731 -81.0286 107° East 342 394 15,700 -1,701 Descending Cleveland Center
Wed 07:48:57 PM 40.9464 -80.9406 112° Southeast 343 395 14,400 -1,770 Descending Cleveland Center
Wed 07:49:15 PM 40.9233 -80.9211 147° Southeast 350 403 13,900 -1,600 Descending Cleveland Center
Wed 07:49:57 PM 40.8797 -80.8494 129° Southeast 343 395 12,800 -1,500 Descending Cleveland Center
Wed 07:50:15 PM 40.8592 -80.8331 149° Southeast 344 396 12,400 -1,400 Descending Cleveland Center
Wed 07:50:57 PM 40.8133 -80.7614 130° Southeast 343 395 11,400 -1,377 Descending Cleveland Center
Wed 07:51:16 PM 40.7967 -80.7450 143° Southeast 330 380 11,000 -1,600 Descending Cleveland Center
Wed 07:51:57 PM 40.7572 -80.6900 133° Southeast 322 371 9,800 -1,545 Descending Cleveland Center
Wed 07:52:22 PM 40.7258 -80.6461 133° Southeast 311 358 9,300 -1,100 Descending Cleveland Center
Wed 07:52:57 PM 40.7008 -80.6078 131° Southeast 308 354 8,700 -1,180 Descending Cleveland Center
Wed 07:53:23 PM 40.6739 -80.5667 131° Southeast 288 331 8,100 -1,400 Descending Cleveland Center
Wed 07:53:57 PM 40.6572 -80.5175 114° Southeast 297 342 7,300 -1,340 Descending Cleveland Center
Wed 07:54:57 PM 40.6111 -80.4217 122° Southeast 284 327 6,000 -650 Descending Cleveland Center
Wed 07:55:57 PM 40.5714 -80.3344 121° Southeast 284 327 6,000  Level Cleveland Center
Wed 07:56:57 PM 40.5711 -80.2497 90° East 244 281 6,000  Level Cleveland Center
Wed 07:58:00 PM 40.4915 -80.2329 143° Southeast  Level Estimated
Wed 08:05:00 PM 40.4915 -80.2329 143° Southeast  Level Estimated
Wed 08:06:00 PM 40.4915 -80.2329 143° Southeast  Level Estimated
Wed 08:07:00 PM 40.4915 -80.2329 143° Southeast  Level Estimated
Wed 08:08:00 PM 40.4915 -80.2329 143° Southeast  Level Estimated

Login

Don't have an account? Register now (free) for customized features, flight alerts, and more!